Time;durP1;ratioP1;P1;durP2;ratioP2;P2;SDS_P1;SDS_P2;PMS_P1;PMS_P2;Temp;Humidity;BMP_temperature;BMP_pressure;BME280_temperature;BME280_humidity;BME280_pressure;Samples;Min_cycle;Max_cycle;Signal;HPM_P1;HPM_P2
2023/02/08 00:01:42;;;;;;;16.77;10.90;;;;;;;-0.36;100.00;103785.53;5262973;28;20025;-68
2023/02/08 00:04:13;;;;;;;15.35;10.85;;;;;;;-0.40;100.00;103786.38;5263766;28;20477;-68
2023/02/08 00:06:45;;;;;;;18.77;11.13;;;;;;;-0.46;100.00;103782.88;5263470;28;20021;-68
2023/02/08 00:09:16;;;;;;;17.00;11.27;;;;;;;-0.41;100.00;103787.22;5263296;28;20032;-68
2023/02/08 00:11:47;;;;;;;14.27;10.63;;;;;;;-0.50;100.00;103784.56;5265587;28;20028;-68
2023/02/08 00:14:18;;;;;;;17.00;11.40;;;;;;;-0.49;100.00;103781.16;5265183;28;20045;-68
2023/02/08 00:16:50;;;;;;;14.95;11.32;;;;;;;-0.54;100.00;103777.66;5268565;28;20021;-69
2023/02/08 00:19:21;;;;;;;13.98;9.75;;;;;;;-0.50;100.00;103784.56;5265705;28;20013;-68
2023/02/08 00:21:52;;;;;;;15.55;10.75;;;;;;;-0.59;100.00;103771.63;5262419;28;20090;-68
2023/02/08 00:24:23;;;;;;;19.17;10.88;;;;;;;-0.61;100.00;103774.16;5246233;28;20442;-68
2023/02/08 00:26:55;;;;;;;17.85;10.75;;;;;;;-0.60;100.00;103772.47;5271133;28;20025;-68
2023/02/08 00:29:26;;;;;;;16.23;11.52;;;;;;;-0.61;100.00;103765.56;5267016;28;20046;-68
2023/02/08 00:31:57;;;;;;;14.20;10.85;;;;;;;-0.64;100.00;103763.00;5247401;28;20389;-68
2023/02/08 00:34:29;;;;;;;14.23;10.93;;;;;;;-0.65;100.00;103767.25;5263890;28;20017;-68
2023/02/08 00:37:00;;;;;;;16.70;11.13;;;;;;;-0.66;100.00;103773.25;5262468;28;20036;-68
2023/02/08 00:39:31;;;;;;;15.35;10.75;;;;;;;-0.69;100.00;103769.78;5269510;28;20119;-68
2023/02/08 00:42:03;;;;;;;13.27;10.43;;;;;;;-0.71;100.00;103776.66;5270069;28;20473;-68
2023/02/08 00:44:34;;;;;;;13.18;10.40;;;;;;;-0.71;100.00;103766.38;5262940;28;20481;-68
2023/02/08 00:47:05;;;;;;;14.65;10.40;;;;;;;-0.71;100.00;103776.66;5266509;28;20029;-68
2023/02/08 00:49:36;;;;;;;14.02;9.63;;;;;;;-0.74;100.00;103765.47;5273363;28;20067;-68
2023/02/08 00:52:08;;;;;;;15.75;10.52;;;;;;;-0.74;100.00;103765.47;5273599;28;20058;-68
2023/02/08 00:54:40;;;;;;;17.90;10.85;;;;;;;-0.72;100.00;103768.03;5265245;28;20124;-68
2023/02/08 00:57:12;;;;;;;15.18;11.35;;;;;;;-0.67;100.00;103763.81;5269053;28;20343;-68
2023/02/08 00:59:44;;;;;;;15.10;10.35;;;;;;;-0.74;100.00;103762.91;5248051;28;20029;-68
2023/02/08 01:02:15;;;;;;;14.85;9.55;;;;;;;-0.69;100.00;103768.09;5244955;28;20020;-68
2023/02/08 01:04:47;;;;;;;15.00;10.73;;;;;;;-0.72;100.00;103765.47;5269667;28;20381;-68
2023/02/08 01:07:18;;;;;;;16.65;10.30;;;;;;;-0.71;100.00;103756.91;5272999;28;20504;-68
2023/02/08 01:09:49;;;;;;;16.90;10.45;;;;;;;-0.79;100.00;103751.72;5266017;28;20047;-68
2023/02/08 01:12:20;;;;;;;13.20;9.55;;;;;;;-0.84;100.00;103750.78;5264253;28;20100;-67
2023/02/08 01:14:52;;;;;;;13.98;10.07;;;;;;;-0.88;100.00;103759.31;5263912;28;20051;-68
2023/02/08 01:17:23;;;;;;;15.20;10.50;;;;;;;-0.83;100.00;103752.53;5249641;28;20071;-68
2023/02/08 01:19:54;;;;;;;13.77;10.40;;;;;;;-0.89;100.00;103749.88;5251580;28;20025;-68
2023/02/08 01:22:28;;;;;;;15.07;10.65;;;;;;;-0.87;100.00;103761.06;5270112;28;20071;-68
2023/02/08 01:25:00;;;;;;;13.60;9.85;;;;;;;-0.94;100.00;103761.84;5273582;28;20489;-68
2023/02/08 01:27:31;;;;;;;15.95;10.80;;;;;;;-0.99;100.00;103737.75;5269428;28;20035;-68
2023/02/08 01:30:03;;;;;;;16.70;10.85;;;;;;;-0.92;100.00;103754.13;5267397;28;20086;-68
2023/02/08 01:32:35;;;;;;;15.63;10.63;;;;;;;-1.01;100.00;103752.34;5263112;28;20489;-68
2023/02/08 01:35:06;;;;;;;15.13;10.00;;;;;;;-1.03;100.00;103746.31;5268630;28;20025;-68
2023/02/08 01:37:37;;;;;;;15.00;10.82;;;;;;;-1.08;100.00;103735.13;5262731;28;20098;-68
2023/02/08 01:40:09;;;;;;;15.05;10.52;;;;;;;-1.05;100.00;103742.88;5269927;28;20024;-68
2023/02/08 01:42:40;;;;;;;14.32;10.15;;;;;;;-1.06;100.00;103748.84;5274443;28;20504;-68
2023/02/08 01:45:15;;;;;;;13.88;9.80;;;;;;;-0.93;100.00;103748.13;5267078;28;20024;-68
2023/02/08 01:47:50;;;;;;;14.70;10.45;;;;;;;-1.00;100.00;103747.19;5273280;28;20067;-67
2023/02/08 01:50:29;;;;;;;16.75;10.00;;;;;;;-1.01;100.00;103747.19;5267606;28;20028;-68
2023/02/08 01:53:01;;;;;;;15.13;10.52;;;;;;;-1.07;100.00;103747.97;5265351;28;20028;-68
2023/02/08 01:55:37;;;;;;;14.85;10.82;;;;;;;-0.96;100.00;103745.53;5267740;28;20040;-68
2023/02/08 01:58:11;;;;;;;12.65;9.50;;;;;;;-1.02;100.00;103741.19;5269929;28;20040;-68
2023/02/08 02:00:42;;;;;;;14.85;11.05;;;;;;;-1.05;100.00;103748.88;5268391;28;20099;-68
2023/02/08 02:03:14;;;;;;;14.07;10.20;;;;;;;-1.08;100.00;103745.41;5268144;28;20484;-68
2023/02/08 02:05:51;;;;;;;15.75;11.10;;;;;;;-1.08;100.00;103748.84;5265590;28;20071;-68
2023/02/08 02:08:22;;;;;;;14.90;10.75;;;;;;;-1.08;100.00;103746.25;5267036;28;20078;-67
2023/02/08 02:10:54;;;;;;;14.85;10.90;;;;;;;-1.07;100.00;103745.41;5267581;28;20037;-68
2023/02/08 02:13:26;;;;;;;14.90;10.70;;;;;;;-1.08;100.00;103753.97;5260971;28;20024;-68
2023/02/08 02:15:58;;;;;;;14.20;10.18;;;;;;;-1.10;100.00;103747.97;5265625;28;20106;-68
2023/02/08 02:18:31;;;;;;;14.45;11.15;;;;;;;-1.10;100.00;103744.50;5268668;28;20033;-67
2023/02/08 02:21:11;;;;;;;14.65;10.50;;;;;;;-1.00;100.00;103741.19;5268328;28;20025;-68
2023/02/08 02:24:01;;;;;;;15.05;10.10;;;;;;;-0.83;100.00;103737.09;5266625;28;20029;-68
2023/02/08 02:27:06;;;;;;;14.10;10.15;;;;;;;-0.89;100.00;103739.59;5264118;28;20016;-67
2023/02/08 02:29:58;;;;;;;12.77;9.55;;;;;;;-0.91;100.00;103736.16;5272640;28;20062;-68
2023/02/08 02:32:33;;;;;;;14.10;10.60;;;;;;;-1.07;100.00;103732.53;5269681;28;20036;-68
2023/02/08 02:35:14;;;;;;;12.25;9.48;;;;;;;-1.05;100.00;103737.72;5267215;28;20136;-68
2023/02/08 02:38:07;;;;;;;13.02;9.30;;;;;;;-1.11;100.00;103737.66;5266340;28;20027;-67
2023/02/08 02:40:41;;;;;;;14.05;10.35;;;;;;;-1.12;100.00;103731.66;5262406;28;20028;-68
2023/02/08 02:46:15;;;;;;;16.00;10.65;;;;;;;-1.19;100.00;103734.13;5265120;28;20028;-67
2023/02/08 02:48:51;;;;;;;13.65;9.38;;;;;;;-1.23;100.00;103739.25;5251805;28;20021;-68
2023/02/08 02:51:34;;;;;;;11.65;9.35;;;;;;;-1.25;100.00;103737.50;5263181;28;20059;-68
2023/02/08 02:54:13;;;;;;;17.83;10.95;;;;;;;-1.25;100.00;103735.81;5264041;28;20413;-68
2023/02/08 02:56:48;;;;;;;13.68;10.02;;;;;;;-1.35;100.00;103730.53;5263461;28;21191;-67
2023/02/08 02:59:21;;;;;;;14.35;10.63;;;;;;;-1.36;100.00;103741.69;5265723;28;20037;-67
2023/02/08 03:01:53;;;;;;;16.35;9.98;;;;;;;-1.36;100.00;103736.53;5269695;28;20225;-68
2023/02/08 03:04:54;;;;;;;15.15;10.10;;;;;;;-1.26;100.00;103739.19;5266086;28;20040;-67
2023/02/08 03:07:58;;;;;;;13.93;9.48;;;;;;;-1.17;100.00;103732.47;5263791;28;20386;-67
2023/02/08 03:10:52;;;;;;;13.27;9.77;;;;;;;-1.18;100.00;103729.00;5227110;28;20041;-67
2023/02/08 03:13:54;;;;;;;13.90;9.85;;;;;;;-1.16;100.00;103729.03;5260861;28;20087;-67
2023/02/08 03:16:41;;;;;;;15.00;9.77;;;;;;;-1.36;100.00;103721.97;5260929;28;20518;-68
2023/02/08 03:19:21;;;;;;;15.55;9.98;;;;;;;-1.38;100.00;103715.06;5262772;28;20232;-68
2023/02/08 03:22:09;;;;;;;13.95;9.77;;;;;;;-1.51;100.00;103719.22;5268141;28;20035;-67
2023/02/08 03:24:52;;;;;;;13.50;9.93;;;;;;;-1.34;100.00;103722.81;5268641;28;20052;-68
2023/02/08 03:27:32;;;;;;;13.68;9.57;;;;;;;-1.45;100.00;103718.41;5263080;28;20074;-68
2023/02/08 03:30:26;;;;;;;16.63;9.68;;;;;;;-1.24;100.00;103716.94;5268562;28;20362;-67
2023/02/08 03:33:01;;;;;;;15.15;11.02;;;;;;;-1.31;100.00;103714.28;5260850;28;20072;-67
2023/02/08 03:35:39;;;;;;;13.25;10.00;;;;;;;-1.31;100.00;103725.44;5263610;28;20040;-67
2023/02/08 03:38:22;;;;;;;13.88;9.68;;;;;;;-1.27;100.00;103726.34;5265316;28;20071;-68
2023/02/08 03:40:56;;;;;;;13.18;9.48;;;;;;;-1.33;100.00;103729.69;5246049;28;20029;-67
2023/02/08 03:44:00;;;;;;;13.00;9.80;;;;;;;-1.21;100.00;103736.72;5262856;28;20104;-67
2023/02/08 03:46:37;;;;;;;11.40;8.85;;;;;;;-1.38;100.00;103730.50;5265611;28;20029;-68
2023/02/08 03:49:14;;;;;;;15.50;9.15;;;;;;;-1.40;100.00;103735.63;5264395;28;20036;-68
2023/02/08 03:51:45;;;;;;;12.73;9.57;;;;;;;-1.46;100.00;103732.97;5262941;28;20028;-68
2023/02/08 03:54:22;;;;;;;12.18;8.95;;;;;;;-1.46;100.00;103735.56;5266097;28;20111;-67
2023/02/08 03:57:03;;;;;;;12.57;8.93;;;;;;;-1.54;100.00;103716.59;5256265;28;20119;-67
2023/02/08 03:59:39;;;;;;;13.20;9.52;;;;;;;-1.51;100.00;103732.06;5263355;28;20035;-67
2023/02/08 04:02:15;;;;;;;14.70;10.05;;;;;;;-1.61;100.00;103717.38;5263026;28;20648;-67
2023/02/08 04:04:49;;;;;;;15.60;9.27;;;;;;;-1.54;100.00;103726.88;5261507;28;20424;-68
2023/02/08 04:07:21;;;;;;;12.77;9.05;;;;;;;-1.62;100.00;103737.06;5269635;28;20021;-67
2023/02/08 04:09:52;;;;;;;15.57;9.05;;;;;;;-1.65;100.00;103729.31;5260026;28;20031;-67
2023/02/08 04:12:23;;;;;;;14.88;9.52;;;;;;;-1.61;100.00;103730.22;5264647;28;20044;-68
2023/02/08 04:14:55;;;;;;;12.93;9.40;;;;;;;-1.75;100.00;103712.91;5265286;28;20040;-68
2023/02/08 04:17:26;;;;;;;13.23;9.52;;;;;;;-1.67;100.00;103728.44;5260026;28;20040;-68
2023/02/08 04:19:57;;;;;;;12.38;9.18;;;;;;;-1.68;100.00;103729.28;5263837;28;20397;-68
2023/02/08 04:22:29;;;;;;;14.55;10.02;;;;;;;-1.67;100.00;103727.56;5262907;28;20079;-68
2023/02/08 04:25:00;;;;;;;16.55;9.45;;;;;;;-1.67;100.00;103720.72;5263272;28;20048;-67
2023/02/08 04:27:31;;;;;;;11.88;8.95;;;;;;;-1.72;100.00;103723.22;5244736;28;20017;-67
2023/02/08 04:30:04;;;;;;;15.95;9.10;;;;;;;-1.77;100.00;103732.59;5268655;28;20036;-68
2023/02/08 04:32:35;;;;;;;13.65;9.38;;;;;;;-1.81;100.00;103725.69;5265897;28;20111;-68
2023/02/08 04:35:06;;;;;;;13.93;9.60;;;;;;;-1.80;100.00;103726.56;5264873;28;20039;-68
2023/02/08 04:37:38;;;;;;;11.38;9.60;;;;;;;-1.73;100.00;103718.94;5264368;28;20029;-67
2023/02/08 04:40:10;;;;;;;13.93;9.73;;;;;;;-1.80;100.00;103721.41;5261258;28;20025;-68
2023/02/08 04:42:41;;;;;;;13.68;9.32;;;;;;;-1.75;100.00;103723.19;5264573;28;20500;-68
2023/02/08 04:45:12;;;;;;;12.55;8.80;;;;;;;-1.74;100.00;103713.81;5269615;28;20033;-68
2023/02/08 04:47:43;;;;;;;14.60;9.57;;;;;;;-1.76;100.00;103718.03;5262705;28;20060;-68
2023/02/08 04:50:15;;;;;;;12.70;9.40;;;;;;;-1.83;100.00;103724.81;5265203;28;20037;-68
2023/02/08 04:52:47;;;;;;;12.98;8.52;;;;;;;-1.83;100.00;103719.66;5266882;28;20021;-68
2023/02/08 04:55:18;;;;;;;15.43;9.82;;;;;;;-1.81;100.00;103722.28;5262961;28;20108;-67
2023/02/08 04:57:49;;;;;;;12.23;9.02;;;;;;;-1.81;100.00;103727.41;5260661;28;20385;-67
2023/02/08 05:00:20;;;;;;;12.20;9.00;;;;;;;-1.82;100.00;103730.78;5261485;28;20424;-68
2023/02/08 05:02:57;;;;;;;13.02;9.43;;;;;;;-1.75;100.00;103735.19;5251034;28;20100;-68
2023/02/08 05:05:28;;;;;;;14.32;9.45;;;;;;;-1.87;100.00;103728.19;5263579;28;20021;-68
2023/02/08 05:07:59;;;;;;;15.93;10.05;;;;;;;-1.87;100.00;103727.31;5253369;28;20505;-68
2023/02/08 05:10:31;;;;;;;14.45;9.23;;;;;;;-1.86;100.00;103722.19;5257437;28;20021;-68
2023/02/08 05:13:02;;;;;;;14.90;9.50;;;;;;;-1.86;100.00;103727.31;5265573;28;20036;-68
2023/02/08 05:15:33;;;;;;;12.23;9.27;;;;;;;-1.86;100.00;103719.63;5257262;28;20041;-68
2023/02/08 05:18:05;;;;;;;13.65;9.13;;;;;;;-1.91;100.00;103723.84;5258490;28;20060;-68
2023/02/08 05:20:36;;;;;;;13.23;8.63;;;;;;;-1.92;100.00;103724.69;5258657;28;20071;-68
2023/02/08 05:23:07;;;;;;;13.30;9.15;;;;;;;-1.97;100.00;103716.94;5265888;28;20020;-67
2023/02/08 05:25:40;;;;;;;12.00;8.82;;;;;;;-1.87;100.00;103728.19;5265949;28;20059;-67
2023/02/08 05:28:12;;;;;;;13.60;8.50;;;;;;;-1.86;100.00;103729.03;5267353;28;20025;-68
2023/02/08 05:30:44;;;;;;;13.18;8.70;;;;;;;-1.88;100.00;103731.59;5269714;28;20051;-68
2023/02/08 05:33:15;;;;;;;13.75;9.30;;;;;;;-1.99;100.00;103723.75;5256014;28;20119;-68
2023/02/08 05:35:47;;;;;;;12.77;9.55;;;;;;;-1.94;100.00;103731.50;5247991;28;20466;-68
2023/02/08 05:38:18;;;;;;;12.10;9.18;;;;;;;-1.82;100.00;103728.22;5268966;28;20425;-67
2023/02/08 05:40:49;;;;;;;13.77;8.95;;;;;;;-1.90;100.00;103725.56;5254651;28;20054;-68
2023/02/08 05:43:20;;;;;;;13.18;9.18;;;;;;;-1.88;100.00;103728.16;5263157;28;20089;-68
2023/02/08 05:45:52;;;;;;;14.35;8.57;;;;;;;-1.90;100.00;103725.56;5264380;28;20024;-68
2023/02/08 05:48:23;;;;;;;12.27;9.18;;;;;;;-1.89;100.00;103718.75;5266756;28;20020;-68
2023/02/08 05:50:54;;;;;;;17.60;9.88;;;;;;;-1.91;100.00;103710.13;5259818;28;20028;-67
2023/02/08 05:53:26;;;;;;;14.18;9.55;;;;;;;-1.90;100.00;103699.00;5267946;28;20021;-68
2023/02/08 05:55:57;;;;;;;13.45;9.52;;;;;;;-1.89;100.00;103693.03;5265937;28;20386;-67
2023/02/08 05:58:29;;;;;;;13.05;9.15;;;;;;;-1.85;100.00;103700.81;5262145;28;20060;-67
2023/02/08 06:01:00;;;;;;;13.85;9.73;;;;;;;-1.87;100.00;103681.06;5266742;28;20032;-68
2023/02/08 06:03:32;;;;;;;13.80;8.90;;;;;;;-1.80;100.00;103698.28;5265794;28;20024;-68
2023/02/08 06:06:04;;;;;;;12.90;9.48;;;;;;;-1.74;100.00;103696.66;5266199;28;20029;-67
2023/02/08 06:08:36;;;;;;;13.90;9.93;;;;;;;-1.75;100.00;103697.50;5264969;28;20028;-67
2023/02/08 06:11:07;;;;;;;15.57;10.05;;;;;;;-1.69;100.00;103704.44;5266047;28;20382;-67
2023/02/08 06:13:38;;;;;;;14.80;10.13;;;;;;;-1.76;100.00;103708.63;5266706;28;20036;-68
2023/02/08 06:16:09;;;;;;;17.10;10.35;;;;;;;-1.73;100.00;103708.66;5266368;28;20041;-67
2023/02/08 06:18:41;;;;;;;15.10;9.43;;;;;;;-1.65;100.00;103711.31;5260296;28;20499;-68
2023/02/08 06:21:12;;;;;;;13.77;9.30;;;;;;;-1.66;100.00;103719.03;5267844;28;20500;-68
2023/02/08 06:23:44;;;;;;;13.18;10.23;;;;;;;-1.65;100.00;103713.03;5269419;28;20096;-68
2023/02/08 06:26:15;;;;;;;13.52;8.95;;;;;;;-1.62;100.00;103707.94;5264844;28;20039;-67
2023/02/08 06:28:46;;;;;;;13.25;10.35;;;;;;;-1.59;100.00;103707.94;5248719;28;20081;-68
2023/02/08 06:31:17;;;;;;;12.68;9.70;;;;;;;-1.57;100.00;103707.13;5250666;28;20247;-67
2023/02/08 06:33:49;;;;;;;14.88;10.25;;;;;;;-1.52;100.00;103708.03;5263541;28;20025;-67
2023/02/08 06:36:20;;;;;;;16.05;10.65;;;;;;;-1.43;100.00;103701.31;5262688;28;20040;-67
2023/02/08 06:38:51;;;;;;;16.00;11.25;;;;;;;-1.40;100.00;103711.59;5269054;28;20109;-67
2023/02/08 06:41:23;;;;;;;15.43;10.57;;;;;;;-1.41;100.00;103708.16;5265555;28;20033;-67
2023/02/08 06:43:57;;;;;;;14.35;10.55;;;;;;;-1.33;100.00;103705.69;5263665;28;20109;-66
2023/02/08 06:46:29;;;;;;;14.95;11.07;;;;;;;-1.34;100.00;103703.97;5265729;28;20470;-67
2023/02/08 06:49:00;;;;;;;17.13;10.80;;;;;;;-1.34;100.00;103704.81;5265941;28;20032;-67
2023/02/08 06:51:31;;;;;;;15.57;10.13;;;;;;;-1.36;100.00;103708.25;5267283;28;20033;-67
2023/02/08 06:54:03;;;;;;;16.58;10.75;;;;;;;-1.38;100.00;103710.78;5264766;28;20033;-68
2023/02/08 06:56:34;;;;;;;22.08;11.05;;;;;;;-1.40;100.00;103711.59;5265535;28;20060;-67
2023/02/08 06:59:06;;;;;;;16.90;11.50;;;;;;;-1.51;100.00;103701.22;5265314;28;20558;-67
2023/02/08 07:01:37;;;;;;;16.52;10.25;;;;;;;-1.47;100.00;103706.41;5246310;28;20102;-67
2023/02/08 07:04:09;;;;;;;14.50;9.73;;;;;;;-1.42;100.00;103706.44;5263067;28;20020;-67
2023/02/08 07:06:40;;;;;;;17.85;10.75;;;;;;;-1.41;100.00;103713.31;5272667;28;20063;-67
2023/02/08 07:09:11;;;;;;;12.18;10.05;;;;;;;-1.51;100.00;103709.78;5246492;28;20025;-68
2023/02/08 07:11:42;;;;;;;16.65;10.57;;;;;;;-1.52;100.00;103720.03;5268502;28;20064;-67
2023/02/08 07:14:14;;;;;;;16.00;10.05;;;;;;;-1.63;100.00;103703.63;5265513;28;20103;-68
2023/02/08 07:16:45;;;;;;;16.48;10.07;;;;;;;-1.49;100.00;103708.09;5260365;28;20044;-68
2023/02/08 07:19:16;;;;;;;15.45;10.85;;;;;;;-1.50;100.00;103710.66;5268110;28;20023;-68
2023/02/08 07:21:48;;;;;;;13.27;9.80;;;;;;;-1.55;100.00;103714.88;5261594;28;20024;-68
2023/02/08 07:24:20;;;;;;;13.45;9.60;;;;;;;-1.57;100.00;103714.84;5259103;28;20048;-68
2023/02/08 07:26:51;;;;;;;15.65;9.98;;;;;;;-1.57;100.00;103717.41;5262213;28;20088;-67
2023/02/08 07:29:22;;;;;;;16.10;9.38;;;;;;;-1.62;100.00;103708.81;5266954;28;20040;-68
2023/02/08 07:31:53;;;;;;;13.05;10.48;;;;;;;-1.60;100.00;103714.81;5260159;28;20032;-67
2023/02/08 07:34:28;;;;;;;15.93;10.95;;;;;;;-1.63;100.00;103713.91;5265215;28;20440;-68
2023/02/08 07:37:00;;;;;;;16.17;10.77;;;;;;;-1.67;100.00;103713.00;5262743;28;20143;-67
2023/02/08 07:39:31;;;;;;;13.63;10.10;;;;;;;-1.69;100.00;103701.00;5239837;28;20477;-66
2023/02/08 07:42:05;;;;;;;15.35;9.73;;;;;;;-1.66;100.00;103706.19;5261025;28;20032;-67
2023/02/08 07:44:37;;;;;;;14.90;10.18;;;;;;;-1.64;100.00;103701.91;5261455;28;20044;-68
2023/02/08 07:47:09;;;;;;;16.45;10.57;;;;;;;-1.54;100.00;103703.75;5265072;28;20033;-67
2023/02/08 07:49:40;;;;;;;16.92;10.15;;;;;;;-1.46;100.00;103702.13;5259714;28;20056;-67
2023/02/08 07:52:12;;;;;;;15.80;10.00;;;;;;;-1.35;100.00;103708.25;5259877;28;20154;-67
2023/02/08 07:54:43;;;;;;;13.55;10.50;;;;;;;-1.38;100.00;103689.34;5262564;28;20032;-68
2023/02/08 07:57:19;;;;;;;13.20;9.27;;;;;;;-1.22;100.00;103702.38;5265473;28;20074;-67
2023/02/08 07:59:51;;;;;;;15.98;9.93;;;;;;;-1.09;100.00;103708.53;5262101;28;20038;-67
2023/02/08 08:02:22;;;;;;;14.10;10.07;;;;;;;-1.00;100.00;103715.47;5261477;28;20020;-68
2023/02/08 08:04:53;;;;;;;16.35;10.77;;;;;;;-0.97;100.00;103710.34;5264041;28;20023;-67
2023/02/08 08:07:25;;;;;;;18.45;10.80;;;;;;;-0.87;100.00;103704.44;5263180;28;20485;-68
2023/02/08 08:09:56;;;;;;;16.25;10.35;;;;;;;-0.80;100.00;103706.19;5264072;28;20032;-67
2023/02/08 08:12:27;;;;;;;15.70;10.13;;;;;;;-0.70;100.00;103698.56;5266032;28;20021;-67
2023/02/08 08:14:59;;;;;;;12.93;9.38;;;;;;;-0.64;100.00;103693.47;5260274;28;20037;-67
2023/02/08 08:17:30;;;;;;;14.57;9.95;;;;;;;-0.59;100.00;103690.06;5263739;28;20037;-67
2023/02/08 08:20:01;;;;;;;20.05;10.40;;;;;;;-0.55;100.00;103696.97;5263998;28;20047;-67
2023/02/08 08:22:33;;;;;;;15.68;10.45;;;;;;;-0.43;100.00;103687.63;5264886;28;20552;-67
2023/02/08 08:25:04;;;;;;;14.05;9.90;;;;;;;-0.34;100.00;103685.97;5263616;28;20121;-67
2023/02/08 08:27:36;;;;;;;12.50;9.50;;;;;;;-0.26;100.00;103686.03;5258386;28;20430;-68
2023/02/08 08:30:11;;;;;;;16.35;10.65;;;;;;;-0.19;100.00;103694.63;5266419;28;20029;-68
2023/02/08 08:32:42;;;;;;;14.48;10.77;;;;;;;-0.14;100.00;103687.81;5257742;28;20044;-68
2023/02/08 08:35:13;;;;;;;15.95;10.52;;;;;;;-0.08;100.00;103690.41;5252797;28;20401;-67
2023/02/08 08:37:45;;;;;;;15.10;9.52;;;;;;;-0.04;100.00;103689.56;5260611;28;20025;-67
2023/02/08 08:40:16;;;;;;;12.70;10.13;;;;;;;0.01;100.00;103687.88;5257202;28;20082;-67
2023/02/08 08:42:47;;;;;;;15.75;10.63;;;;;;;0.04;100.00;103689.59;5262770;28;20021;-68
2023/02/08 08:45:19;;;;;;;16.00;9.43;;;;;;;0.14;100.00;103689.66;5264713;28;20047;-69
2023/02/08 08:47:50;;;;;;;13.63;9.95;;;;;;;0.20;100.00;103686.25;5262239;28;20020;-67
2023/02/08 08:50:21;;;;;;;12.95;9.88;;;;;;;0.26;100.00;103686.25;5260926;28;20040;-68
2023/02/08 08:52:52;;;;;;;14.18;9.60;;;;;;;0.38;100.00;103688.91;5262070;28;20028;-67
2023/02/08 08:55:24;;;;;;;16.17;9.88;;;;;;;0.48;100.00;103689.78;5264128;28;20044;-68
2023/02/08 08:57:56;;;;;;;14.23;10.35;;;;;;;0.50;100.00;103685.50;5261111;28;20039;-68
2023/02/08 09:00:27;;;;;;;13.35;9.23;;;;;;;0.57;100.00;103682.09;5262036;28;20020;-67
2023/02/08 09:02:58;;;;;;;14.20;10.30;;;;;;;0.60;100.00;103682.06;5262527;28;20482;-67
2023/02/08 09:05:29;;;;;;;11.20;9.18;;;;;;;0.72;100.00;103676.97;5260169;28;20374;-67
2023/02/08 09:08:02;;;;;;;13.10;8.88;;;;;;;0.76;100.00;103682.09;5262765;28;20108;-67
2023/02/08 09:10:33;;;;;;;12.70;9.43;;;;;;;0.82;100.00;103675.25;5260683;28;20029;-67
2023/02/08 09:13:04;;;;;;;16.00;9.25;;;;;;;0.87;100.00;103678.72;5268496;28;20037;-68
2023/02/08 09:15:40;;;;;;;12.82;9.60;;;;;;;0.97;100.00;103676.97;5265671;28;20048;-68
2023/02/08 09:18:11;;;;;;;13.75;8.65;;;;;;;1.01;100.00;103676.13;5268817;28;20656;-68
2023/02/08 09:20:43;;;;;;;14.07;9.07;;;;;;;1.01;100.00;103672.69;5259380;28;20021;-67
2023/02/08 09:23:14;;;;;;;12.60;8.55;;;;;;;1.03;100.00;103678.72;5265343;28;20064;-67
2023/02/08 09:25:45;;;;;;;11.63;8.25;;;;;;;1.06;100.00;103684.75;5268406;28;20082;-67
2023/02/08 09:28:16;;;;;;;13.05;8.82;;;;;;;1.10;100.00;103672.66;5263179;28;20408;-67
2023/02/08 09:30:48;;;;;;;13.95;8.95;;;;;;;1.19;100.00;103686.47;5264405;28;20033;-68
2023/02/08 09:33:19;;;;;;;11.25;8.23;;;;;;;1.21;100.00;103682.16;5263389;28;20096;-68
2023/02/08 09:35:50;;;;;;;12.77;8.57;;;;;;;1.31;100.00;103682.16;5261813;28;20045;-67
2023/02/08 09:38:21;;;;;;;11.90;8.75;;;;;;;1.38;100.00;103673.53;5264289;28;20024;-67
2023/02/08 09:41:00;;;;;;;13.15;8.20;;;;;;;1.53;100.00;103683.84;5264095;28;20028;-68
2023/02/08 09:43:59;;;;;;;13.13;8.35;;;;;;;1.67;100.00;103689.88;5262364;28;20033;-68
2023/02/08 09:46:37;;;;;;;10.80;7.93;;;;;;;1.57;100.00;103684.72;5264838;28;20111;-68
2023/02/08 09:49:14;;;;;;;12.18;8.25;;;;;;;1.61;100.00;103679.53;5266110;28;20078;-67
2023/02/08 09:52:00;;;;;;;11.73;8.57;;;;;;;1.89;100.00;103689.81;5263270;28;20028;-68
2023/02/08 09:54:51;;;;;;;10.95;7.93;;;;;;;2.17;100.00;103688.00;5261965;28;20037;-67
2023/02/08 09:57:28;;;;;;;10.10;7.35;;;;;;;2.11;100.00;103688.00;5262973;28;20419;-68
2023/02/08 10:00:05;;;;;;;11.25;8.05;;;;;;;2.15;100.00;103682.81;5260235;28;20032;-68
2023/02/08 10:02:38;;;;;;;11.85;7.75;;;;;;;2.13;100.00;103676.81;5261845;28;20548;-68
2023/02/08 10:05:13;;;;;;;10.75;7.57;;;;;;;2.37;100.00;103677.56;5264643;28;20032;-68
2023/02/08 10:07:44;;;;;;;10.10;7.43;;;;;;;2.34;100.00;103678.41;5263374;28;20032;-68
2023/02/08 10:10:32;;;;;;;10.48;6.80;;;;;;;2.54;100.00;103674.88;5267899;28;20036;-68
2023/02/08 10:13:28;;;;;;;12.30;7.60;;;;;;;2.79;100.00;103685.94;5258515;28;20047;-68
2023/02/08 10:16:18;;;;;;;11.52;7.95;;;;;;;2.79;100.00;103685.94;5263938;28;20432;-68
2023/02/08 10:19:13;;;;;;;10.40;7.45;;;;;;;3.02;100.00;103694.41;5261990;28;20035;-68
2023/02/08 10:21:50;;;;;;;10.25;7.15;;;;;;;3.08;100.00;103685.75;5263980;28;20055;-68
2023/02/08 10:24:40;;;;;;;10.55;6.75;;;;;;;3.21;100.00;103692.53;5268036;28;20432;-68
2023/02/08 10:27:22;;;;;;;11.77;7.13;;;;;;;3.35;100.00;103693.28;5243696;28;20037;-68
2023/02/08 10:30:18;;;;;;;9.02;6.95;;;;;;;3.41;100.00;103700.16;5259787;28;20085;-68
2023/02/08 10:32:53;;;;;;;13.80;6.68;;;;;;;3.50;100.00;103696.63;5260600;28;20107;-68
2023/02/08 10:35:34;;;;;;;11.20;6.30;;;;;;;3.68;100.00;103705.97;5262079;28;20246;-68
2023/02/08 10:38:21;;;;;;;12.60;7.57;;;;;;;3.89;100.00;103716.09;5266896;28;20035;-68
2023/02/08 10:41:01;;;;;;;12.32;6.88;;;;;;;3.94;100.00;103710.84;5261614;28;20017;-68
2023/02/08 10:43:35;;;;;;;10.63;7.20;;;;;;;4.03;100.00;103702.97;5264599;28;20040;-69
2023/02/08 10:46:09;;;;;;;11.18;6.57;;;;;;;4.19;100.00;103701.06;5268016;28;20109;-69
2023/02/08 10:48:53;;;;;;;9.63;6.88;;;;;;;4.30;100.00;103706.97;5264600;28;20044;-69
2023/02/08 10:51:25;;;;;;;10.02;6.22;;;;;;;4.29;100.00;103698.34;5262497;28;20114;-68
2023/02/08 10:53:56;;;;;;;8.65;6.70;;;;;;;4.38;92.65;103682.63;5263615;28;20108;-68
2023/02/08 10:56:56;;;;;;;12.25;5.95;;;;;;;4.66;69.16;103686.56;5263688;28;20031;-69
2023/02/08 10:59:37;;;;;;;10.80;6.60;;;;;;;4.68;66.14;103693.47;5267480;28;20036;-68
2023/02/08 11:02:27;;;;;;;12.70;6.57;;;;;;;4.93;65.44;103687.94;5262045;28;20078;-69
2023/02/08 11:05:01;;;;;;;10.75;6.57;;;;;;;4.87;61.31;103675.88;5263013;28;20379;-69
2023/02/08 11:07:33;;;;;;;9.48;6.60;;;;;;;4.98;62.77;103676.56;5262482;28;20029;-68
2023/02/08 11:10:21;;;;;;;7.47;5.80;;;;;;;5.12;63.76;103681.56;5268358;28;20040;-69
2023/02/08 11:13:05;;;;;;;9.68;6.10;;;;;;;5.23;59.76;103677.03;5264491;28;20036;-69
2023/02/08 11:15:56;;;;;;;7.68;5.72;;;;;;;5.44;57.09;103661.94;5261189;22;20089;-72
2023/02/08 11:18:45;;;;;;;8.43;5.78;;;;;;;5.40;52.57;103666.34;5227094;28;20067;-71
2023/02/08 11:21:28;;;;;;;11.68;5.80;;;;;;;5.48;51.09;103664.44;5232315;28;20116;-70
2023/02/08 11:24:06;;;;;;;8.50;5.90;;;;;;;5.56;47.04;103656.50;5233285;28;20386;-70
2023/02/08 11:26:38;;;;;;;8.30;6.43;;;;;;;5.48;46.21;103659.25;5211123;28;20030;-72
2023/02/08 11:29:25;;;;;;;7.90;6.50;;;;;;;5.73;46.74;103654.47;5213372;28;20034;-70
2023/02/08 11:32:14;;;;;;;13.80;6.63;;;;;;;5.88;44.51;103652.44;5209849;28;20044;-70
2023/02/08 11:34:46;;;;;;;10.85;6.78;;;;;;;5.77;45.02;103639.66;5213900;28;20617;-70
2023/02/08 11:37:22;;;;;;;11.43;6.47;;;;;;;5.94;45.18;103641.94;5192732;28;20037;-72
2023/02/08 11:39:58;;;;;;;9.50;7.07;;;;;;;5.96;44.46;103641.03;5207787;28;20030;-71
2023/02/08 11:42:39;;;;;;;11.05;6.90;;;;;;;6.05;46.13;103629.56;5209040;28;20030;-70
2023/02/08 11:45:28;;;;;;;8.93;6.63;;;;;;;6.17;44.24;103631.03;5202559;28;20034;-70
2023/02/08 11:48:03;;;;;;;8.55;6.35;;;;;;;6.11;43.32;103610.38;5210374;28;20033;-71